sensor_id;sensor_type;location;lat;lon;timestamp;pressure;altitude;pressure_sealevel;temperature;humidity
37170;BME280;23062;13.952;100.608;2023-08-20T00:03:03;1006.18;;;32.93;56.11
37170;BME280;23062;13.952;100.608;2023-08-20T00:07:35;1006.28;;;32.77;57.14
37170;BME280;23062;13.952;100.608;2023-08-20T00:12:05;1006.36;;;32.69;57.51
37170;BME280;23062;13.952;100.608;2023-08-20T00:16:33;1006.43;;;32.68;57.48
37170;BME280;23062;13.952;100.608;2023-08-20T00:21:03;1006.55;;;32.71;57.57
37170;BME280;23062;13.952;100.608;2023-08-20T00:25:31;1006.53;;;32.74;57.63
37170;BME280;23062;13.952;100.608;2023-08-20T00:29:59;1006.52;;;32.74;57.70
37170;BME280;23062;13.952;100.608;2023-08-20T00:34:25;1006.62;;;32.75;57.63
37170;BME280;23062;13.952;100.608;2023-08-20T00:38:57;1006.68;;;32.74;57.63
37170;BME280;23062;13.952;100.608;2023-08-20T00:43:31;1006.76;;;32.67;57.64
37170;BME280;23062;13.952;100.608;2023-08-20T00:47:58;1006.80;;;32.72;57.37
37170;BME280;23062;13.952;100.608;2023-08-20T00:52:31;1006.82;;;32.70;57.50
37170;BME280;23062;13.952;100.608;2023-08-20T00:57:00;1006.78;;;32.73;57.33
37170;BME280;23062;13.952;100.608;2023-08-20T01:01:28;1006.83;;;32.75;57.33
37170;BME280;23062;13.952;100.608;2023-08-20T01:05:58;1006.90;;;32.76;57.24
37170;BME280;23062;13.952;100.608;2023-08-20T01:10:53;1006.91;;;32.84;57.26
37170;BME280;23062;13.952;100.608;2023-08-20T01:15:22;1006.86;;;32.83;57.25
37170;BME280;23062;13.952;100.608;2023-08-20T01:19:54;1006.89;;;32.84;57.02
37170;BME280;23062;13.952;100.608;2023-08-20T01:29:20;1007.02;;;32.80;56.71
37170;BME280;23062;13.952;100.608;2023-08-20T01:33:47;1007.03;;;32.77;56.75
37170;BME280;23062;13.952;100.608;2023-08-20T01:38:24;1006.97;;;32.77;56.83
37170;BME280;23062;13.952;100.608;2023-08-20T01:42:52;1007.02;;;32.78;56.98
37170;BME280;23062;13.952;100.608;2023-08-20T01:47:23;1007.11;;;32.77;56.84
37170;BME280;23062;13.952;100.608;2023-08-20T01:51:49;1007.05;;;32.77;56.87
37170;BME280;23062;13.952;100.608;2023-08-20T01:56:19;1007.00;;;32.81;56.72
37170;BME280;23062;13.952;100.608;2023-08-20T02:00:47;1006.99;;;32.81;56.97
37170;BME280;23062;13.952;100.608;2023-08-20T02:05:15;1007.00;;;32.86;57.10
37170;BME280;23062;13.952;100.608;2023-08-20T02:09:42;1006.92;;;32.84;57.19
37170;BME280;23062;13.952;100.608;2023-08-20T02:14:12;1006.90;;;33.07;56.42
37170;BME280;23062;13.952;100.608;2023-08-20T02:18:40;1006.90;;;33.16;56.00
37170;BME280;23062;13.952;100.608;2023-08-20T02:23:11;1006.87;;;33.18;55.90
37170;BME280;23062;13.952;100.608;2023-08-20T02:27:38;1006.82;;;33.22;55.95
37170;BME280;23062;13.952;100.608;2023-08-20T02:32:06;1006.89;;;33.27;55.70
37170;BME280;23062;13.952;100.608;2023-08-20T02:36:34;1006.85;;;33.30;55.56
37170;BME280;23062;13.952;100.608;2023-08-20T02:41:03;1006.86;;;33.29;55.50
37170;BME280;23062;13.952;100.608;2023-08-20T02:45:43;1006.91;;;33.36;55.44
37170;BME280;23062;13.952;100.608;2023-08-20T02:50:12;1006.92;;;33.37;55.27
37170;BME280;23062;13.952;100.608;2023-08-20T02:54:43;1006.94;;;33.37;55.32
37170;BME280;23062;13.952;100.608;2023-08-20T02:59:14;1006.84;;;33.36;55.31
37170;BME280;23062;13.952;100.608;2023-08-20T03:03:48;1006.80;;;33.37;55.32
37170;BME280;23062;13.952;100.608;2023-08-20T03:08:15;1006.74;;;33.40;55.33
37170;BME280;23062;13.952;100.608;2023-08-20T03:12:43;1006.72;;;33.43;55.15
37170;BME280;23062;13.952;100.608;2023-08-20T03:17:11;1006.85;;;33.41;55.24
37170;BME280;23062;13.952;100.608;2023-08-20T03:21:39;1006.88;;;33.41;55.20
37170;BME280;23062;13.952;100.608;2023-08-20T03:26:10;1006.96;;;33.50;55.08
37170;BME280;23062;13.952;100.608;2023-08-20T03:30:43;1007.03;;;33.45;55.19
37170;BME280;23062;13.952;100.608;2023-08-20T03:35:12;1007.06;;;33.45;55.20
37170;BME280;23062;13.952;100.608;2023-08-20T03:39:40;1007.00;;;33.46;55.23
37170;BME280;23062;13.952;100.608;2023-08-20T03:44:10;1007.07;;;33.50;55.09
37170;BME280;23062;13.952;100.608;2023-08-20T03:48:45;1007.08;;;33.50;55.09
37170;BME280;23062;13.952;100.608;2023-08-20T03:53:15;1007.06;;;33.53;55.10
37170;BME280;23062;13.952;100.608;2023-08-20T03:57:45;1007.00;;;33.58;55.06
37170;BME280;23062;13.952;100.608;2023-08-20T04:02:17;1007.06;;;33.55;55.26
37170;BME280;23062;13.952;100.608;2023-08-20T04:06:44;1007.06;;;33.53;55.13
37170;BME280;23062;13.952;100.608;2023-08-20T04:11:13;1007.04;;;33.51;55.20
37170;BME280;23062;13.952;100.608;2023-08-20T04:15:45;1006.97;;;33.49;55.23
37170;BME280;23062;13.952;100.608;2023-08-20T04:20:16;1006.94;;;33.51;55.16
37170;BME280;23062;13.952;100.608;2023-08-20T04:24:44;1006.87;;;33.55;55.17
37170;BME280;23062;13.952;100.608;2023-08-20T04:29:10;1006.81;;;33.55;55.21
37170;BME280;23062;13.952;100.608;2023-08-20T04:33:37;1006.75;;;33.57;55.15
37170;BME280;23062;13.952;100.608;2023-08-20T04:38:05;1006.64;;;33.58;55.17
37170;BME280;23062;13.952;100.608;2023-08-20T04:42:37;1006.51;;;33.61;55.19
37170;BME280;23062;13.952;100.608;2023-08-20T04:47:04;1006.42;;;33.60;55.12
37170;BME280;23062;13.952;100.608;2023-08-20T04:51:39;1006.37;;;33.59;55.13
37170;BME280;23062;13.952;100.608;2023-08-20T04:56:12;1006.32;;;33.60;55.09
37170;BME280;23062;13.952;100.608;2023-08-20T05:00:40;1006.22;;;33.64;55.05
37170;BME280;23062;13.952;100.608;2023-08-20T05:05:08;1006.17;;;33.64;54.98
37170;BME280;23062;13.952;100.608;2023-08-20T05:09:34;1006.10;;;33.66;54.96
37170;BME280;23062;13.952;100.608;2023-08-20T05:14:07;1006.04;;;33.66;54.95
37170;BME280;23062;13.952;100.608;2023-08-20T05:18:42;1005.97;;;33.68;55.01
37170;BME280;23062;13.952;100.608;2023-08-20T05:23:13;1005.87;;;33.69;54.97
37170;BME280;23062;13.952;100.608;2023-08-20T05:27:47;1005.73;;;33.71;54.92
37170;BME280;23062;13.952;100.608;2023-08-20T05:32:16;1005.68;;;33.73;54.92
37170;BME280;23062;13.952;100.608;2023-08-20T05:36:44;1005.54;;;33.75;54.88
37170;BME280;23062;13.952;100.608;2023-08-20T05:41:12;1005.44;;;33.78;54.84
37170;BME280;23062;13.952;100.608;2023-08-20T05:45:55;1005.34;;;33.77;54.81
37170;BME280;23062;13.952;100.608;2023-08-20T05:50:21;1005.37;;;33.80;54.68
37170;BME280;23062;13.952;100.608;2023-08-20T05:54:51;1005.30;;;33.80;54.65
37170;BME280;23062;13.952;100.608;2023-08-20T05:59:19;1005.16;;;33.79;54.62
37170;BME280;23062;13.952;100.608;2023-08-20T06:03:51;1005.12;;;33.82;54.57
37170;BME280;23062;13.952;100.608;2023-08-20T06:08:21;1005.06;;;33.85;54.48
37170;BME280;23062;13.952;100.608;2023-08-20T06:12:50;1004.87;;;33.84;54.52
37170;BME280;23062;13.952;100.608;2023-08-20T06:17:27;1004.65;;;33.86;54.32
37170;BME280;23062;13.952;100.608;2023-08-20T06:21:54;1004.57;;;33.87;54.39
37170;BME280;23062;13.952;100.608;2023-08-20T06:26:27;1004.47;;;33.89;54.38
37170;BME280;23062;13.952;100.608;2023-08-20T06:30:54;1004.42;;;33.94;54.27
37170;BME280;23062;13.952;100.608;2023-08-20T06:35:21;1004.40;;;33.95;54.29
37170;BME280;23062;13.952;100.608;2023-08-20T06:39:49;1004.33;;;33.95;54.29
37170;BME280;23062;13.952;100.608;2023-08-20T06:44:27;1004.31;;;33.98;54.25
37170;BME280;23062;13.952;100.608;2023-08-20T06:49:01;1004.23;;;33.98;54.25
37170;BME280;23062;13.952;100.608;2023-08-20T06:53:29;1004.18;;;34.01;54.22
37170;BME280;23062;13.952;100.608;2023-08-20T06:57:56;1004.12;;;34.00;54.22
37170;BME280;23062;13.952;100.608;2023-08-20T07:02:25;1003.97;;;33.92;53.98
37170;BME280;23062;13.952;100.608;2023-08-20T07:06:54;1003.85;;;33.87;54.57
37170;BME280;23062;13.952;100.608;2023-08-20T07:11:26;1003.85;;;33.93;54.00
37170;BME280;23062;13.952;100.608;2023-08-20T07:15:54;1003.84;;;34.04;54.14
37170;BME280;23062;13.952;100.608;2023-08-20T07:20:32;1003.75;;;34.10;54.09
37170;BME280;23062;13.952;100.608;2023-08-20T07:25:01;1003.74;;;34.08;54.11
37170;BME280;23062;13.952;100.608;2023-08-20T07:29:32;1003.56;;;34.14;53.81
37170;BME280;23062;13.952;100.608;2023-08-20T07:34:02;1003.42;;;34.14;54.09
37170;BME280;23062;13.952;100.608;2023-08-20T07:38:38;1003.37;;;34.13;54.03
37170;BME280;23062;13.952;100.608;2023-08-20T07:43:16;1003.24;;;34.16;53.94
37170;BME280;23062;13.952;100.608;2023-08-20T07:47:44;1003.18;;;34.24;53.17
37170;BME280;23062;13.952;100.608;2023-08-20T07:52:21;1003.20;;;34.23;53.12
37170;BME280;23062;13.952;100.608;2023-08-20T08:01:38;1003.25;;;34.18;53.36
37170;BME280;23062;13.952;100.608;2023-08-20T08:06:07;1003.19;;;34.18;53.29
37170;BME280;23062;13.952;100.608;2023-08-20T08:10:40;1003.19;;;34.23;53.31
37170;BME280;23062;13.952;100.608;2023-08-20T08:15:17;1003.08;;;34.18;53.57
37170;BME280;23062;13.952;100.608;2023-08-20T08:19:46;1002.98;;;34.19;53.54
37170;BME280;23062;13.952;100.608;2023-08-20T08:24:15;1002.90;;;34.21;53.55
37170;BME280;23062;13.952;100.608;2023-08-20T08:28:46;1002.77;;;34.20;53.71
37170;BME280;23062;13.952;100.608;2023-08-20T08:33:16;1002.69;;;34.18;53.86
37170;BME280;23062;13.952;100.608;2023-08-20T08:37:44;1002.73;;;34.17;53.87
37170;BME280;23062;13.952;100.608;2023-08-20T08:42:26;1002.87;;;34.17;54.00
37170;BME280;23062;13.952;100.608;2023-08-20T08:46:57;1002.86;;;34.19;53.99
37170;BME280;23062;13.952;100.608;2023-08-20T08:51:25;1002.73;;;34.15;54.11
37170;BME280;23062;13.952;100.608;2023-08-20T08:56:05;1002.72;;;34.18;54.16
37170;BME280;23062;13.952;100.608;2023-08-20T09:00:34;1002.63;;;34.15;54.17
37170;BME280;23062;13.952;100.608;2023-08-20T09:05:01;1002.63;;;34.21;54.85
37170;BME280;23062;13.952;100.608;2023-08-20T09:09:31;1002.86;;;34.23;55.11
37170;BME280;23062;13.952;100.608;2023-08-20T09:13:59;1002.97;;;34.23;54.17
37170;BME280;23062;13.952;100.608;2023-08-20T09:18:28;1003.16;;;34.24;54.19
37170;BME280;23062;13.952;100.608;2023-08-20T09:22:55;1003.16;;;34.11;56.40
37170;BME280;23062;13.952;100.608;2023-08-20T09:27:25;1003.29;;;33.95;56.90
37170;BME280;23062;13.952;100.608;2023-08-20T09:32:00;1003.40;;;33.86;56.38
37170;BME280;23062;13.952;100.608;2023-08-20T09:36:34;1003.29;;;33.73;55.53
37170;BME280;23062;13.952;100.608;2023-08-20T09:41:02;1003.39;;;33.76;54.98
37170;BME280;23062;13.952;100.608;2023-08-20T09:45:32;1003.41;;;33.69;55.18
37170;BME280;23062;13.952;100.608;2023-08-20T09:50:06;1003.52;;;33.61;54.97
37170;BME280;23062;13.952;100.608;2023-08-20T09:59:30;1003.32;;;33.53;54.71
37170;BME280;23062;13.952;100.608;2023-08-20T10:04:00;1003.28;;;33.58;54.89
37170;BME280;23062;13.952;100.608;2023-08-20T10:08:35;1003.27;;;33.58;56.35
37170;BME280;23062;13.952;100.608;2023-08-20T10:13:38;1003.39;;;33.62;56.27
37170;BME280;23062;13.952;100.608;2023-08-20T10:18:21;1003.49;;;33.62;56.24
37170;BME280;23062;13.952;100.608;2023-08-20T10:22:49;1003.57;;;33.63;56.39
37170;BME280;23062;13.952;100.608;2023-08-20T10:27:27;1003.60;;;33.65;56.32
37170;BME280;23062;13.952;100.608;2023-08-20T10:31:54;1003.59;;;33.71;55.97
37170;BME280;23062;13.952;100.608;2023-08-20T10:36:22;1003.64;;;33.74;55.56
37170;BME280;23062;13.952;100.608;2023-08-20T10:40:56;1003.74;;;33.74;54.86
37170;BME280;23062;13.952;100.608;2023-08-20T10:45:32;1003.78;;;33.75;55.29
37170;BME280;23062;13.952;100.608;2023-08-20T10:50:00;1003.88;;;33.78;55.68
37170;BME280;23062;13.952;100.608;2023-08-20T10:54:28;1003.95;;;33.75;55.97
37170;BME280;23062;13.952;100.608;2023-08-20T10:59:16;1004.12;;;33.82;55.97
37170;BME280;23062;13.952;100.608;2023-08-20T11:03:54;1004.14;;;33.83;56.60
37170;BME280;23062;13.952;100.608;2023-08-20T11:08:21;1004.30;;;33.88;56.71
37170;BME280;23062;13.952;100.608;2023-08-20T11:12:51;1004.59;;;33.78;57.13
37170;BME280;23062;13.952;100.608;2023-08-20T11:17:19;1004.90;;;33.62;57.23
37170;BME280;23062;13.952;100.608;2023-08-20T11:21:48;1005.02;;;33.51;56.58
37170;BME280;23062;13.952;100.608;2023-08-20T11:30:56;1005.44;;;33.36;55.95
37170;BME280;23062;13.952;100.608;2023-08-20T11:35:30;1005.49;;;33.25;55.99
37170;BME280;23062;13.952;100.608;2023-08-20T11:40:12;1005.45;;;33.19;55.11
37170;BME280;23062;13.952;100.608;2023-08-20T11:44:58;1005.37;;;33.20;55.02
37170;BME280;23062;13.952;100.608;2023-08-20T11:49:30;1005.33;;;33.09;57.02
37170;BME280;23062;13.952;100.608;2023-08-20T11:53:59;1005.28;;;33.02;57.79
37170;BME280;23062;13.952;100.608;2023-08-20T11:58:27;1005.19;;;32.95;57.94
37170;BME280;23062;13.952;100.608;2023-08-20T12:03:02;1004.98;;;32.87;58.35
37170;BME280;23062;13.952;100.608;2023-08-20T12:07:31;1005.09;;;32.80;58.06
37170;BME280;23062;13.952;100.608;2023-08-20T12:12:19;1005.12;;;32.86;57.46
37170;BME280;23062;13.952;100.608;2023-08-20T12:16:59;1005.07;;;33.00;56.87
37170;BME280;23062;13.952;100.608;2023-08-20T12:21:30;1005.25;;;33.06;56.78
37170;BME280;23062;13.952;100.608;2023-08-20T12:25:58;1005.24;;;33.10;56.62
37170;BME280;23062;13.952;100.608;2023-08-20T12:30:38;1005.27;;;33.08;56.44
37170;BME280;23062;13.952;100.608;2023-08-20T12:35:12;1005.26;;;33.13;56.63
37170;BME280;23062;13.952;100.608;2023-08-20T12:39:43;1005.36;;;33.25;56.47
37170;BME280;23062;13.952;100.608;2023-08-20T12:44:16;1005.38;;;33.38;56.32
37170;BME280;23062;13.952;100.608;2023-08-20T12:48:53;1005.63;;;33.41;56.78
37170;BME280;23062;13.952;100.608;2023-08-20T12:53:25;1006.00;;;33.45;57.03
37170;BME280;23062;13.952;100.608;2023-08-20T12:57:57;1006.24;;;33.47;57.14
37170;BME280;23062;13.952;100.608;2023-08-20T13:02:27;1006.40;;;33.43;57.29
37170;BME280;23062;13.952;100.608;2023-08-20T13:07:06;1006.50;;;33.50;57.14
37170;BME280;23062;13.952;100.608;2023-08-20T13:11:38;1006.65;;;33.50;57.38
37170;BME280;23062;13.952;100.608;2023-08-20T13:16:09;1006.82;;;33.52;57.61
37170;BME280;23062;13.952;100.608;2023-08-20T13:20:39;1006.94;;;33.52;57.20
37170;BME280;23062;13.952;100.608;2023-08-20T13:25:12;1006.68;;;33.51;57.14
37170;BME280;23062;13.952;100.608;2023-08-20T13:29:47;1006.52;;;33.49;57.10
37170;BME280;23062;13.952;100.608;2023-08-20T13:34:17;1006.63;;;33.48;57.01
37170;BME280;23062;13.952;100.608;2023-08-20T13:38:56;1006.77;;;33.48;56.94
37170;BME280;23062;13.952;100.608;2023-08-20T13:43:28;1006.89;;;33.47;57.14
37170;BME280;23062;13.952;100.608;2023-08-20T13:48:00;1006.98;;;33.47;56.77
37170;BME280;23062;13.952;100.608;2023-08-20T13:52:31;1006.97;;;33.47;56.81
37170;BME280;23062;13.952;100.608;2023-08-20T13:57:01;1006.98;;;33.47;56.86
37170;BME280;23062;13.952;100.608;2023-08-20T14:01:33;1007.12;;;33.45;57.08
37170;BME280;23062;13.952;100.608;2023-08-20T14:06:06;1007.29;;;33.45;57.47
37170;BME280;23062;13.952;100.608;2023-08-20T14:10:38;1007.48;;;33.46;58.06
37170;BME280;23062;13.952;100.608;2023-08-20T14:15:14;1007.49;;;33.45;58.46
37170;BME280;23062;13.952;100.608;2023-08-20T14:19:49;1007.51;;;33.45;58.68
37170;BME280;23062;13.952;100.608;2023-08-20T14:24:19;1007.40;;;33.40;58.77
37170;BME280;23062;13.952;100.608;2023-08-20T14:28:48;1007.32;;;33.40;59.41
37170;BME280;23062;13.952;100.608;2023-08-20T14:33:18;1007.20;;;33.40;58.96
37170;BME280;23062;13.952;100.608;2023-08-20T14:37:55;1007.18;;;33.40;59.24
37170;BME280;23062;13.952;100.608;2023-08-20T14:42:26;1007.15;;;33.44;59.19
37170;BME280;23062;13.952;100.608;2023-08-20T14:47:01;1007.08;;;33.43;59.50
37170;BME280;23062;13.952;100.608;2023-08-20T14:51:31;1007.03;;;33.40;59.77
37170;BME280;23062;13.952;100.608;2023-08-20T14:56:02;1007.06;;;33.42;59.87
37170;BME280;23062;13.952;100.608;2023-08-20T15:00:32;1007.19;;;33.42;60.00
37170;BME280;23062;13.952;100.608;2023-08-20T15:05:04;1007.33;;;33.42;60.05
37170;BME280;23062;13.952;100.608;2023-08-20T15:09:39;1007.40;;;33.39;60.27
37170;BME280;23062;13.952;100.608;2023-08-20T15:14:13;1007.61;;;33.42;60.10
37170;BME280;23062;13.952;100.608;2023-08-20T15:18:45;1007.49;;;33.36;60.46
37170;BME280;23062;13.952;100.608;2023-08-20T15:23:14;1007.46;;;33.35;60.57
37170;BME280;23062;13.952;100.608;2023-08-20T15:27:45;1007.62;;;33.29;60.59
37170;BME280;23062;13.952;100.608;2023-08-20T15:32:18;1007.75;;;33.37;59.82
37170;BME280;23062;13.952;100.608;2023-08-20T15:36:53;1007.74;;;33.36;59.89
37170;BME280;23062;13.952;100.608;2023-08-20T15:41:36;1007.69;;;33.31;59.90
37170;BME280;23062;13.952;100.608;2023-08-20T15:46:06;1007.75;;;33.29;60.14
37170;BME280;23062;13.952;100.608;2023-08-20T15:50:34;1007.79;;;33.30;60.12
37170;BME280;23062;13.952;100.608;2023-08-20T15:55:04;1007.75;;;33.27;60.14
37170;BME280;23062;13.952;100.608;2023-08-20T15:59:43;1007.62;;;33.29;60.12
37170;BME280;23062;13.952;100.608;2023-08-20T16:04:09;1007.60;;;33.28;60.06
37170;BME280;23062;13.952;100.608;2023-08-20T16:08:44;1007.70;;;33.24;60.13
37170;BME280;23062;13.952;100.608;2023-08-20T16:13:17;1007.81;;;33.22;59.99
37170;BME280;23062;13.952;100.608;2023-08-20T16:17:47;1007.82;;;33.23;59.79
37170;BME280;23062;13.952;100.608;2023-08-20T16:22:14;1007.85;;;33.20;60.04
37170;BME280;23062;13.952;100.608;2023-08-20T16:26:46;1007.81;;;33.21;59.83
37170;BME280;23062;13.952;100.608;2023-08-20T16:31:15;1007.70;;;33.18;59.49
37170;BME280;23062;13.952;100.608;2023-08-20T16:35:50;1007.82;;;33.16;59.35
37170;BME280;23062;13.952;100.608;2023-08-20T16:40:24;1007.87;;;33.17;58.99
37170;BME280;23062;13.952;100.608;2023-08-20T16:44:53;1007.77;;;33.13;58.86
37170;BME280;23062;13.952;100.608;2023-08-20T16:49:20;1007.89;;;33.10;58.58
37170;BME280;23062;13.952;100.608;2023-08-20T16:53:48;1007.91;;;33.08;58.29
37170;BME280;23062;13.952;100.608;2023-08-20T16:58:15;1007.83;;;33.09;57.93
37170;BME280;23062;13.952;100.608;2023-08-20T17:02:56;1007.66;;;33.01;57.91
37170;BME280;23062;13.952;100.608;2023-08-20T17:07:29;1007.54;;;33.01;57.62
37170;BME280;23062;13.952;100.608;2023-08-20T17:12:01;1007.44;;;33.00;57.45
37170;BME280;23062;13.952;100.608;2023-08-20T17:16:45;1007.48;;;32.99;57.36
37170;BME280;23062;13.952;100.608;2023-08-20T17:21:11;1007.35;;;32.96;57.13
37170;BME280;23062;13.952;100.608;2023-08-20T17:25:47;1007.20;;;32.95;56.92
37170;BME280;23062;13.952;100.608;2023-08-20T17:30:15;1007.13;;;32.95;56.79
37170;BME280;23062;13.952;100.608;2023-08-20T17:34:42;1007.09;;;32.95;56.63
37170;BME280;23062;13.952;100.608;2023-08-20T17:39:19;1007.04;;;32.93;56.48
37170;BME280;23062;13.952;100.608;2023-08-20T17:43:50;1007.01;;;32.90;56.54
37170;BME280;23062;13.952;100.608;2023-08-20T17:48:17;1007.01;;;32.88;56.74
37170;BME280;23062;13.952;100.608;2023-08-20T17:52:50;1006.96;;;32.89;56.80
37170;BME280;23062;13.952;100.608;2023-08-20T17:57:22;1006.95;;;32.88;56.91
37170;BME280;23062;13.952;100.608;2023-08-20T18:01:54;1006.85;;;32.86;57.07
37170;BME280;23062;13.952;100.608;2023-08-20T18:06:29;1006.67;;;32.81;57.28
37170;BME280;23062;13.952;100.608;2023-08-20T18:10:55;1006.43;;;32.83;57.18
37170;BME280;23062;13.952;100.608;2023-08-20T18:15:23;1006.22;;;32.81;57.33
37170;BME280;23062;13.952;100.608;2023-08-20T18:19:52;1006.11;;;32.80;57.41
37170;BME280;23062;13.952;100.608;2023-08-20T18:24:25;1006.02;;;32.80;57.46
37170;BME280;23062;13.952;100.608;2023-08-20T18:28:53;1005.91;;;32.74;57.66
37170;BME280;23062;13.952;100.608;2023-08-20T18:33:27;1005.88;;;32.77;57.68
37170;BME280;23062;13.952;100.608;2023-08-20T18:38:01;1005.82;;;32.74;57.75
37170;BME280;23062;13.952;100.608;2023-08-20T18:42:36;1005.85;;;32.75;57.71
37170;BME280;23062;13.952;100.608;2023-08-20T18:47:09;1005.82;;;32.74;57.72
37170;BME280;23062;13.952;100.608;2023-08-20T18:51:37;1005.89;;;32.73;57.76
37170;BME280;23062;13.952;100.608;2023-08-20T18:56:06;1005.80;;;32.71;57.89
37170;BME280;23062;13.952;100.608;2023-08-20T19:00:40;1005.74;;;32.68;57.87
37170;BME280;23062;13.952;100.608;2023-08-20T19:05:07;1005.74;;;32.67;57.94
37170;BME280;23062;13.952;100.608;2023-08-20T19:09:34;1005.77;;;32.68;57.99
37170;BME280;23062;13.952;100.608;2023-08-20T19:14:00;1005.79;;;32.68;58.01
37170;BME280;23062;13.952;100.608;2023-08-20T19:18:29;1005.77;;;32.68;58.07
37170;BME280;23062;13.952;100.608;2023-08-20T19:23:03;1005.77;;;32.69;58.15
37170;BME280;23062;13.952;100.608;2023-08-20T19:27:38;1005.74;;;32.66;58.27
37170;BME280;23062;13.952;100.608;2023-08-20T19:32:14;1005.67;;;32.66;58.36
37170;BME280;23062;13.952;100.608;2023-08-20T19:36:42;1005.59;;;32.66;58.45
37170;BME280;23062;13.952;100.608;2023-08-20T19:41:16;1005.52;;;32.65;58.59
37170;BME280;23062;13.952;100.608;2023-08-20T19:45:44;1005.50;;;32.65;58.68
37170;BME280;23062;13.952;100.608;2023-08-20T19:50:13;1005.52;;;32.64;58.80
37170;BME280;23062;13.952;100.608;2023-08-20T19:54:43;1005.44;;;32.64;58.89
37170;BME280;23062;13.952;100.608;2023-08-20T19:59:09;1005.38;;;32.61;59.03
37170;BME280;23062;13.952;100.608;2023-08-20T20:03:36;1005.35;;;32.62;59.02
37170;BME280;23062;13.952;100.608;2023-08-20T20:08:07;1005.23;;;32.62;59.26
37170;BME280;23062;13.952;100.608;2023-08-20T20:12:39;1005.11;;;32.60;59.24
37170;BME280;23062;13.952;100.608;2023-08-20T20:17:09;1005.13;;;32.57;59.44
37170;BME280;23062;13.952;100.608;2023-08-20T20:21:38;1005.08;;;32.59;59.57
37170;BME280;23062;13.952;100.608;2023-08-20T20:26:12;1005.09;;;32.57;59.65
37170;BME280;23062;13.952;100.608;2023-08-20T20:30:47;1005.02;;;32.58;59.69
37170;BME280;23062;13.952;100.608;2023-08-20T20:35:15;1004.97;;;32.57;59.76
37170;BME280;23062;13.952;100.608;2023-08-20T20:39:43;1004.99;;;32.57;59.88
37170;BME280;23062;13.952;100.608;2023-08-20T20:44:17;1005.00;;;32.56;60.01
37170;BME280;23062;13.952;100.608;2023-08-20T20:48:43;1005.05;;;32.56;59.95
37170;BME280;23062;13.952;100.608;2023-08-20T20:53:18;1005.08;;;32.57;60.30
37170;BME280;23062;13.952;100.608;2023-08-20T20:57:52;1005.12;;;32.56;60.03
37170;BME280;23062;13.952;100.608;2023-08-20T21:02:20;1005.21;;;32.57;60.31
37170;BME280;23062;13.952;100.608;2023-08-20T21:06:48;1005.18;;;32.56;60.17
37170;BME280;23062;13.952;100.608;2023-08-20T21:11:15;1005.15;;;32.51;60.94
37170;BME280;23062;13.952;100.608;2023-08-20T21:15:44;1005.15;;;32.19;62.13
37170;BME280;23062;13.952;100.608;2023-08-20T21:20:12;1005.18;;;32.16;62.17
37170;BME280;23062;13.952;100.608;2023-08-20T21:24:40;1005.17;;;32.01;62.76
37170;BME280;23062;13.952;100.608;2023-08-20T21:29:09;1005.25;;;31.93;63.17
37170;BME280;23062;13.952;100.608;2023-08-20T21:33:36;1005.19;;;31.77;63.88
37170;BME280;23062;13.952;100.608;2023-08-20T21:38:04;1005.24;;;31.86;63.75
37170;BME280;23062;13.952;100.608;2023-08-20T21:42:50;1005.29;;;31.82;63.83
37170;BME280;23062;13.952;100.608;2023-08-20T21:47:24;1005.41;;;31.84;63.96
37170;BME280;23062;13.952;100.608;2023-08-20T21:51:52;1005.41;;;31.82;64.12
37170;BME280;23062;13.952;100.608;2023-08-20T21:56:22;1005.49;;;31.84;64.16
37170;BME280;23062;13.952;100.608;2023-08-20T22:00:51;1005.55;;;31.78;64.41
37170;BME280;23062;13.952;100.608;2023-08-20T22:05:25;1005.66;;;31.74;64.44
37170;BME280;23062;13.952;100.608;2023-08-20T22:09:52;1005.67;;;31.56;65.64
37170;BME280;23062;13.952;100.608;2023-08-20T22:14:20;1005.78;;;31.41;66.23
37170;BME280;23062;13.952;100.608;2023-08-20T22:18:47;1005.77;;;31.33;66.34
37170;BME280;23062;13.952;100.608;2023-08-20T22:23:13;1005.87;;;31.20;66.75
37170;BME280;23062;13.952;100.608;2023-08-20T22:27:48;1005.91;;;31.23;67.05
37170;BME280;23062;13.952;100.608;2023-08-20T22:32:20;1005.93;;;31.26;67.09
37170;BME280;23062;13.952;100.608;2023-08-20T22:36:58;1005.92;;;31.30;66.87
37170;BME280;23062;13.952;100.608;2023-08-20T22:41:25;1005.93;;;31.33;66.61
37170;BME280;23062;13.952;100.608;2023-08-20T22:45:54;1006.00;;;31.24;67.00
37170;BME280;23062;13.952;100.608;2023-08-20T22:50:30;1006.01;;;31.26;67.34
37170;BME280;23062;13.952;100.608;2023-08-20T22:54:58;1006.05;;;31.43;66.57
37170;BME280;23062;13.952;100.608;2023-08-20T22:59:25;1006.12;;;31.33;66.57
37170;BME280;23062;13.952;100.608;2023-08-20T23:03:52;1006.20;;;31.51;65.95
37170;BME280;23062;13.952;100.608;2023-08-20T23:08:21;1006.19;;;31.51;65.58
37170;BME280;23062;13.952;100.608;2023-08-20T23:12:56;1006.25;;;31.44;65.61
37170;BME280;23062;13.952;100.608;2023-08-20T23:17:24;1006.28;;;31.44;65.75
37170;BME280;23062;13.952;100.608;2023-08-20T23:21:55;1006.32;;;31.38;65.43
37170;BME280;23062;13.952;100.608;2023-08-20T23:26:29;1006.42;;;31.38;65.19
37170;BME280;23062;13.952;100.608;2023-08-20T23:30:56;1006.64;;;31.30;65.12
37170;BME280;23062;13.952;100.608;2023-08-20T23:35:23;1006.70;;;31.38;64.77
37170;BME280;23062;13.952;100.608;2023-08-20T23:39:54;1006.70;;;31.36;64.77
37170;BME280;23062;13.952;100.608;2023-08-20T23:44:26;1006.64;;;31.35;64.86
37170;BME280;23062;13.952;100.608;2023-08-20T23:49:02;1006.59;;;31.36;64.51
37170;BME280;23062;13.952;100.608;2023-08-20T23:53:36;1006.68;;;31.37;64.46
37170;BME280;23062;13.952;100.608;2023-08-20T23:58:05;1006.79;;;31.37;64.14
